Spirit II — 9V3628 — position and weather

sailwx.info

Track history (hours):
 
Tides and Currents Weather Stations Pressure Air Temp Water Temp Dewpoint Dewpoint Depression Visibility Wind Speed Wind Dir Waves Ship Positions

Spirit II

Last reported at 2018-Jan-18 06:04 UTC. Time now 2018-Jan-19 11:34 UTC.
Position N 36°32' E 023°46'.

Length 252 m; draft 12.2 m.

Type: Tanker. MMSI: 566414000.

Date/timePositionNaut miles runAvg speedWind from/ knotsBaromVisibWave heightAir tempDewpointWater temp
2018-Jan-18 06:04N 36°32' E 023°46'112.6
2018-Jan-18 06:00N 36°33' E 023°47'612.1
2018-Jan-18 05:28N 36°38' E 023°52'612.1
2018-Jan-18 04:59N 36°43' E 023°56'612.3
2018-Jan-18 04:28N 36°47' E 024°02'611.8
2018-Jan-18 04:00N 36°52' E 024°04'612.3
2018-Jan-18 03:30N 36°58' E 024°06'612.4
2018-Jan-18 03:00N 37°04' E 024°08'612.4
2018-Jan-18 02:30N 37°10' E 024°10'612.7
2018-Jan-18 02:00N 37°16' E 024°12'612.7
2018-Jan-18 01:30N 37°23' E 024°14'612.3
2018-Jan-18 01:00N 37°28' E 024°18'1212.1
2018-Jan-18 00:00N 37°37' E 024°28'112.4
2018-Jan-17 23:57N 37°37' E 024°29'  
2018-Jan-10 10:32N 44°24' E 037°22'112.6
2018-Jan-10 10:28N 44°25' E 037°23'1512.0
2018-Jan-10 09:14N 44°32' E 037°41'210.0
2018-Jan-10 09:00N 44°33' E 037°44'5 9.8
2018-Jan-10 08:30N 44°37' E 037°48'4 7.2
2018-Jan-10 08:00N 44°40' E 037°50'2 4.0
2018-Jan-10 07:28N 44°42' E 037°50'0 0.0
2018-Jan-10 06:58N 44°42' E 037°50'0 0.0
2018-Jan-10 06:29N 44°42' E 037°50'0 0.0
2018-Jan-10 05:58N 44°42' E 037°50'0 0.0
2018-Jan-10 05:28N 44°42' E 037°50'0 0.0
2018-Jan-10 04:58N 44°42' E 037°50'0 0.0
2018-Jan-10 04:28N 44°42' E 037°50'0 0.0
2018-Jan-10 03:58N 44°42' E 037°50'0 0.0
2018-Jan-10 03:28N 44°42' E 037°50'0 0.0
2018-Jan-10 02:58N 44°42' E 037°50'0 0.0
2018-Jan-10 02:28N 44°42' E 037°50'0 0.0
2018-Jan-10 01:59N 44°42' E 037°50'0 0.0
2018-Jan-10 01:28N 44°42' E 037°50'0 0.0
2018-Jan-10 00:58N 44°42' E 037°50'0 0.0
2018-Jan-10 00:28N 44°42' E 037°50'0 0.0
2018-Jan-09 23:58N 44°42' E 037°50'0 0.0
2018-Jan-09 23:28N 44°42' E 037°50'0 0.0
2018-Jan-09 22:58N 44°42' E 037°50'0 0.0
2018-Jan-09 22:28N 44°42' E 037°50'0 0.0
2018-Jan-09 21:58N 44°42' E 037°50'0 0.0
2018-Jan-09 21:28N 44°42' E 037°50'0 0.0
2018-Jan-09 20:58N 44°42' E 037°50'0 0.0
2018-Jan-09 20:28N 44°42' E 037°50'0 0.0
2018-Jan-09 19:58N 44°42' E 037°50'0 0.0
2018-Jan-09 19:28N 44°42' E 037°50'0 0.0
2018-Jan-09 18:58N 44°42' E 037°50'0 0.0
2018-Jan-09 18:28N 44°42' E 037°50'0 0.0
2018-Jan-09 17:58N 44°42' E 037°50'0 0.0
2018-Jan-09 17:28N 44°42' E 037°50'0 0.0
2018-Jan-09 16:58N 44°42' E 037°50'0 0.0
2018-Jan-09 16:28N 44°42' E 037°50'0 0.0
2018-Jan-09 15:58N 44°42' E 037°50'0 0.0
2018-Jan-09 15:28N 44°42' E 037°50'0 0.0
2018-Jan-09 14:58N 44°42' E 037°50'0 0.0
2018-Jan-09 14:28N 44°42' E 037°50'0 0.0
2018-Jan-09 13:58N 44°42' E 037°50'0 0.0
2018-Jan-09 13:28N 44°42' E 037°50'0 0.0
2018-Jan-09 12:58N 44°42' E 037°50'0 0.0
2018-Jan-09 12:28N 44°42' E 037°50'0 0.0
2018-Jan-09 11:58N 44°42' E 037°50'0 0.0
2018-Jan-09 11:28N 44°42' E 037°50'0 0.0
2018-Jan-09 10:58N 44°42' E 037°50'0 0.0
2018-Jan-09 10:28N 44°42' E 037°50'0 0.0
2018-Jan-09 09:58N 44°42' E 037°50'0 0.0
2018-Jan-09 09:28N 44°42' E 037°50'0 0.0
2018-Jan-09 08:58N 44°42' E 037°50'0 0.0
2018-Jan-09 08:28N 44°42' E 037°50'0 0.0
2018-Jan-09 07:58N 44°42' E 037°50'0 0.0
2018-Jan-09 07:28N 44°42' E 037°50'0 0.0
2018-Jan-09 06:58N 44°42' E 037°50'0 0.0
2018-Jan-09 06:28N 44°42' E 037°50'0 0.0
2018-Jan-09 05:58N 44°42' E 037°50'0 0.0
2018-Jan-09 05:28N 44°42' E 037°50'0 0.0
2018-Jan-09 05:00N 44°42' E 037°50'0 0.6
2018-Jan-09 04:31N 44°42' E 037°50'2 4.1
2018-Jan-09 04:01N 44°40' E 037°50'2 4.2
2018-Jan-09 03:31N 44°38' E 037°52'14 8.1
2018-Jan-09 01:48N 44°24' E 037°52'3 8.9
2018-Jan-09 01:31N 44°22' E 037°53'1 1.3
2018-Jan-09 01:00N 44°21' E 037°52'0 0.9
2018-Jan-09 00:30N 44°21' E 037°51'0 0.8
2018-Jan-09 00:00N 44°21' E 037°51'0 0.8
2018-Jan-08 23:31N 44°21' E 037°50'0 0.8
2018-Jan-08 23:00N 44°21' E 037°50'0 0.8
2018-Jan-08 22:30N 44°21' E 037°49'0 0.7
2018-Jan-08 22:01N 44°21' E 037°49'0 0.8
2018-Jan-08 21:30N 44°21' E 037°48'0 0.8
2018-Jan-08 21:00N 44°21' E 037°48'0 0.8
2018-Jan-08 20:30N 44°21' E 037°47'0 0.9
2018-Jan-08 20:00N 44°20' E 037°47'0 1.0
2018-Jan-08 19:31N 44°20' E 037°46'1 1.6
2018-Jan-08 19:01N 44°19' E 037°45'5 6.5
2018-Jan-08 18:17N 44°15' E 037°44'1 1.9
2018-Jan-08 18:00N 44°14' E 037°44'0 0.4
2018-Jan-08 17:25N 44°15' E 037°44'0 0.4
2018-Jan-08 16:55N 44°15' E 037°44'0 0.4
2018-Jan-08 16:30N 44°15' E 037°44'0 0.4
2018-Jan-08 16:00N 44°15' E 037°44'0 0.6
2018-Jan-08 15:30N 44°15' E 037°44'0 0.6
2018-Jan-08 15:00N 44°16' E 037°44'0 0.5
2018-Jan-08 14:29N 44°16' E 037°43'1 0.5
2018-Jan-08 13:00N 44°16' E 037°43'0 0.6
2018-Jan-08 12:29N 44°16' E 037°42'0 0.7
2018-Jan-08 11:55N 44°16' E 037°42'0 0.7
2018-Jan-08 11:29N 44°16' E 037°41'0 0.8
2018-Jan-08 10:56N 44°16' E 037°41'1 0.9
2018-Jan-08 10:19N 44°16' E 037°40'0 1.3
2018-Jan-08 10:00N 44°17' E 037°39'2 3.8
2018-Jan-08 09:25N 44°18' E 037°37'410.2
2018-Jan-08 08:59N 44°20' E 037°32'5 9.9
2018-Jan-08 08:30N 44°23' E 037°26'0 0.6
2018-Jan-08 08:00N 44°24' E 037°26'0 0.5
2018-Jan-08 07:30N 44°23' E 037°27'0 0.6
2018-Jan-08 06:58N 44°23' E 037°27'0 0.6
2018-Jan-08 06:30N 44°23' E 037°27'  
Track history (hours):
 
Tides and Currents Weather Stations Pressure Air Temp Water Temp Dewpoint Dewpoint Depression Visibility Wind Speed Wind Dir Waves Ship Positions

Spirit II

Last reported at 2018-Jan-18 06:04 UTC. Time now 2018-Jan-19 11:34 UTC.
Position N 36°32' E 023°46'.

Length 252 m; draft 12.2 m.

Type: Tanker. MMSI: 566414000.

Date/timePositionNaut miles runAvg speedWind from/ knotsBaromVisibWave heightAir tempDewpointWater temp
2018-Jan-18 06:04N 36°32' E 023°46'112.6
2018-Jan-18 06:00N 36°33' E 023°47'612.1
2018-Jan-18 05:28N 36°38' E 023°52'612.1
2018-Jan-18 04:59N 36°43' E 023°56'612.3
2018-Jan-18 04:28N 36°47' E 024°02'611.8
2018-Jan-18 04:00N 36°52' E 024°04'612.3
2018-Jan-18 03:30N 36°58' E 024°06'612.4
2018-Jan-18 03:00N 37°04' E 024°08'612.4
2018-Jan-18 02:30N 37°10' E 024°10'612.7
2018-Jan-18 02:00N 37°16' E 024°12'612.7
2018-Jan-18 01:30N 37°23' E 024°14'612.3
2018-Jan-18 01:00N 37°28' E 024°18'1212.1
2018-Jan-18 00:00N 37°37' E 024°28'112.4
2018-Jan-17 23:57N 37°37' E 024°29'  
2018-Jan-10 10:32N 44°24' E 037°22'112.6
2018-Jan-10 10:28N 44°25' E 037°23'1512.0
2018-Jan-10 09:14N 44°32' E 037°41'210.0
2018-Jan-10 09:00N 44°33' E 037°44'5 9.8
2018-Jan-10 08:30N 44°37' E 037°48'4 7.2
2018-Jan-10 08:00N 44°40' E 037°50'2 4.0
2018-Jan-10 07:28N 44°42' E 037°50'0 0.0
2018-Jan-10 06:58N 44°42' E 037°50'0 0.0
2018-Jan-10 06:29N 44°42' E 037°50'0 0.0
2018-Jan-10 05:58N 44°42' E 037°50'0 0.0
2018-Jan-10 05:28N 44°42' E 037°50'0 0.0
2018-Jan-10 04:58N 44°42' E 037°50'0 0.0
2018-Jan-10 04:28N 44°42' E 037°50'0 0.0
2018-Jan-10 03:58N 44°42' E 037°50'0 0.0
2018-Jan-10 03:28N 44°42' E 037°50'0 0.0
2018-Jan-10 02:58N 44°42' E 037°50'0 0.0
2018-Jan-10 02:28N 44°42' E 037°50'0 0.0
2018-Jan-10 01:59N 44°42' E 037°50'0 0.0
2018-Jan-10 01:28N 44°42' E 037°50'0 0.0
2018-Jan-10 00:58N 44°42' E 037°50'0 0.0
2018-Jan-10 00:28N 44°42' E 037°50'0 0.0
2018-Jan-09 23:58N 44°42' E 037°50'0 0.0
2018-Jan-09 23:28N 44°42' E 037°50'0 0.0
2018-Jan-09 22:58N 44°42' E 037°50'0 0.0
2018-Jan-09 22:28N 44°42' E 037°50'0 0.0
2018-Jan-09 21:58N 44°42' E 037°50'0 0.0
2018-Jan-09 21:28N 44°42' E 037°50'0 0.0
2018-Jan-09 20:58N 44°42' E 037°50'0 0.0
2018-Jan-09 20:28N 44°42' E 037°50'0 0.0
2018-Jan-09 19:58N 44°42' E 037°50'0 0.0
2018-Jan-09 19:28N 44°42' E 037°50'0 0.0
2018-Jan-09 18:58N 44°42' E 037°50'0 0.0
2018-Jan-09 18:28N 44°42' E 037°50'0 0.0
2018-Jan-09 17:58N 44°42' E 037°50'0 0.0
2018-Jan-09 17:28N 44°42' E 037°50'0 0.0
2018-Jan-09 16:58N 44°42' E 037°50'0 0.0
2018-Jan-09 16:28N 44°42' E 037°50'0 0.0
2018-Jan-09 15:58N 44°42' E 037°50'0 0.0
2018-Jan-09 15:28N 44°42' E 037°50'0 0.0
2018-Jan-09 14:58N 44°42' E 037°50'0 0.0
2018-Jan-09 14:28N 44°42' E 037°50'0 0.0
2018-Jan-09 13:58N 44°42' E 037°50'0 0.0
2018-Jan-09 13:28N 44°42' E 037°50'0 0.0
2018-Jan-09 12:58N 44°42' E 037°50'0 0.0
2018-Jan-09 12:28N 44°42' E 037°50'0 0.0
2018-Jan-09 11:58N 44°42' E 037°50'0 0.0
2018-Jan-09 11:28N 44°42' E 037°50'0 0.0
2018-Jan-09 10:58N 44°42' E 037°50'0 0.0
2018-Jan-09 10:28N 44°42' E 037°50'0 0.0
2018-Jan-09 09:58N 44°42' E 037°50'0 0.0
2018-Jan-09 09:28N 44°42' E 037°50'0 0.0
2018-Jan-09 08:58N 44°42' E 037°50'0 0.0
2018-Jan-09 08:28N 44°42' E 037°50'0 0.0
2018-Jan-09 07:58N 44°42' E 037°50'0 0.0
2018-Jan-09 07:28N 44°42' E 037°50'0 0.0
2018-Jan-09 06:58N 44°42' E 037°50'0 0.0
2018-Jan-09 06:28N 44°42' E 037°50'0 0.0
2018-Jan-09 05:58N 44°42' E 037°50'0 0.0
2018-Jan-09 05:28N 44°42' E 037°50'0 0.0
2018-Jan-09 05:00N 44°42' E 037°50'0 0.6
2018-Jan-09 04:31N 44°42' E 037°50'2 4.1
2018-Jan-09 04:01N 44°40' E 037°50'2 4.2
2018-Jan-09 03:31N 44°38' E 037°52'14 8.1
2018-Jan-09 01:48N 44°24' E 037°52'3 8.9
2018-Jan-09 01:31N 44°22' E 037°53'1 1.3
2018-Jan-09 01:00N 44°21' E 037°52'0 0.9
2018-Jan-09 00:30N 44°21' E 037°51'0 0.8
2018-Jan-09 00:00N 44°21' E 037°51'0 0.8
2018-Jan-08 23:31N 44°21' E 037°50'0 0.8
2018-Jan-08 23:00N 44°21' E 037°50'0 0.8
2018-Jan-08 22:30N 44°21' E 037°49'0 0.7
2018-Jan-08 22:01N 44°21' E 037°49'0 0.8
2018-Jan-08 21:30N 44°21' E 037°48'0 0.8
2018-Jan-08 21:00N 44°21' E 037°48'0 0.8
2018-Jan-08 20:30N 44°21' E 037°47'0 0.9
2018-Jan-08 20:00N 44°20' E 037°47'0 1.0
2018-Jan-08 19:31N 44°20' E 037°46'1 1.6
2018-Jan-08 19:01N 44°19' E 037°45'5 6.5
2018-Jan-08 18:17N 44°15' E 037°44'1 1.9
2018-Jan-08 18:00N 44°14' E 037°44'0 0.4
2018-Jan-08 17:25N 44°15' E 037°44'0 0.4
2018-Jan-08 16:55N 44°15' E 037°44'0 0.4
2018-Jan-08 16:30N 44°15' E 037°44'0 0.4
2018-Jan-08 16:00N 44°15' E 037°44'0 0.6
2018-Jan-08 15:30N 44°15' E 037°44'0 0.6
2018-Jan-08 15:00N 44°16' E 037°44'0 0.5
2018-Jan-08 14:29N 44°16' E 037°43'1 0.5
2018-Jan-08 13:00N 44°16' E 037°43'0 0.6
2018-Jan-08 12:29N 44°16' E 037°42'0 0.7
2018-Jan-08 11:55N 44°16' E 037°42'0 0.7
2018-Jan-08 11:29N 44°16' E 037°41'0 0.8
2018-Jan-08 10:56N 44°16' E 037°41'1 0.9
2018-Jan-08 10:19N 44°16' E 037°40'0 1.3
2018-Jan-08 10:00N 44°17' E 037°39'2 3.8
2018-Jan-08 09:25N 44°18' E 037°37'410.2
2018-Jan-08 08:59N 44°20' E 037°32'5 9.9
2018-Jan-08 08:30N 44°23' E 037°26'0 0.6
2018-Jan-08 08:00N 44°24' E 037°26'0 0.5
2018-Jan-08 07:30N 44°23' E 037°27'0 0.6
2018-Jan-08 06:58N 44°23' E 037°27'0 0.6
2018-Jan-08 06:30N 44°23' E 037°27'  

Dump ship's entire track history